createdAt,value
2018-06-10T00:01:02.881Z,5.85
2018-06-10T00:03:36.283Z,5.83
2018-06-10T00:06:09.700Z,6.60
2018-06-10T00:08:43.086Z,6.00
2018-06-10T00:11:16.499Z,6.40
2018-06-10T00:13:49.908Z,6.25
2018-06-10T00:16:23.303Z,5.83
2018-06-10T00:18:56.953Z,6.65
2018-06-10T00:21:30.367Z,6.45
2018-06-10T00:24:03.772Z,6.40
2018-06-10T00:26:37.240Z,6.00
2018-06-10T00:29:15.866Z,5.53
2018-06-10T00:31:49.751Z,6.28
2018-06-10T00:34:23.120Z,6.30
2018-06-10T00:36:56.568Z,6.55
2018-06-10T00:39:29.987Z,6.25
2018-06-10T00:42:03.408Z,6.55
2018-06-10T00:44:36.816Z,6.50
2018-06-10T00:47:10.228Z,6.30
2018-06-10T00:49:43.612Z,6.17
2018-06-10T00:52:17.096Z,6.70
2018-06-10T00:54:50.455Z,6.47
2018-06-10T00:57:23.839Z,6.33
2018-06-10T00:59:57.240Z,6.75
2018-06-10T01:02:30.648Z,6.22
2018-06-10T01:05:04.026Z,6.05
2018-06-10T01:07:37.429Z,6.90
2018-06-10T01:10:10.820Z,5.87
2018-06-10T01:12:44.252Z,6.80
2018-06-10T01:15:17.659Z,6.83
2018-06-10T01:17:51.080Z,6.55
2018-06-10T01:20:24.455Z,7.05
2018-06-10T01:22:57.899Z,6.85
2018-06-10T01:25:31.301Z,7.50
2018-06-10T01:28:04.715Z,6.65
2018-06-10T01:30:38.100Z,6.70
2018-06-10T01:33:11.495Z,6.95
2018-06-10T01:35:44.890Z,7.50
2018-06-10T01:38:18.285Z,7.40
2018-06-10T01:40:51.664Z,7.58
2018-06-10T01:43:25.058Z,6.75
2018-06-10T01:45:58.452Z,6.70
2018-06-10T01:48:31.856Z,7.25
2018-06-10T01:51:05.298Z,7.55
2018-06-10T01:53:38.732Z,7.42
2018-06-10T01:56:12.107Z,7.12
2018-06-10T01:58:45.504Z,6.78
2018-06-10T02:01:18.911Z,7.72
2018-06-10T02:03:52.307Z,6.92
2018-06-10T02:06:26.010Z,7.87
2018-06-10T02:08:59.429Z,8.35
2018-06-10T02:11:32.837Z,7.45
2018-06-10T02:14:06.285Z,7.60
2018-06-10T02:16:39.680Z,7.60
2018-06-10T02:19:13.124Z,7.25
2018-06-10T02:21:46.552Z,6.92
2018-06-10T02:24:19.959Z,7.87
2018-06-10T02:26:53.336Z,7.28
2018-06-10T02:29:26.771Z,7.97
2018-06-10T02:32:00.145Z,7.22
2018-06-10T02:34:33.547Z,7.70
2018-06-10T02:37:06.931Z,7.78
2018-06-10T02:39:40.323Z,7.12
2018-06-10T02:42:13.710Z,7.95
2018-06-10T02:44:47.138Z,7.30
2018-06-10T02:47:20.543Z,7.28
2018-06-10T02:49:53.948Z,7.00
2018-06-10T02:52:27.429Z,7.62
2018-06-10T02:55:00.841Z,6.90
2018-06-10T02:57:34.240Z,7.58
2018-06-10T03:00:07.665Z,7.03
2018-06-10T03:02:41.052Z,7.22
2018-06-10T03:05:14.461Z,8.10
2018-06-10T03:07:47.943Z,7.40
2018-06-10T03:10:21.280Z,7.80
2018-06-10T03:12:54.692Z,7.60
2018-06-10T03:15:28.108Z,7.70
2018-06-10T03:18:01.528Z,8.23
2018-06-10T03:20:34.931Z,7.70
2018-06-10T03:23:08.316Z,7.58
2018-06-10T03:25:41.707Z,7.47
2018-06-10T03:28:15.119Z,7.80
2018-06-10T03:30:48.510Z,7.72
2018-06-10T03:33:21.914Z,7.15
2018-06-10T03:35:55.317Z,7.50
2018-06-10T03:38:28.721Z,7.53
2018-06-10T03:41:02.292Z,8.05
2018-06-10T03:43:35.709Z,8.73
2018-06-10T03:46:09.109Z,7.67
2018-06-10T03:48:42.542Z,8.03
2018-06-10T03:51:15.919Z,7.80
2018-06-10T03:53:49.331Z,7.95
2018-06-10T03:56:22.711Z,8.08
2018-06-10T03:58:56.181Z,7.55
2018-06-10T04:01:29.655Z,7.85
2018-06-10T04:04:03.052Z,7.70
2018-06-10T04:06:36.487Z,8.70
2018-06-10T04:09:09.888Z,8.30
2018-06-10T04:11:43.298Z,8.40
2018-06-10T04:14:16.725Z,8.15
2018-06-10T04:16:50.105Z,7.95
2018-06-10T04:19:23.542Z,8.75
2018-06-10T04:21:56.963Z,8.40
2018-06-10T04:24:30.370Z,7.50
2018-06-10T04:27:03.748Z,8.73
2018-06-10T04:29:37.172Z,8.50
2018-06-10T04:32:10.548Z,8.60
2018-06-10T04:34:43.957Z,8.45
2018-06-10T04:37:17.347Z,8.13
2018-06-10T04:39:50.767Z,8.28
2018-06-10T04:42:24.152Z,7.60
2018-06-10T04:44:57.630Z,8.40
2018-06-10T04:47:31.003Z,8.18
2018-06-10T04:50:04.419Z,7.45
2018-06-10T04:52:37.804Z,7.87
2018-06-10T04:55:11.212Z,8.73
2018-06-10T04:57:44.615Z,8.55
2018-06-10T05:00:18.069Z,7.78
2018-06-10T05:02:51.475Z,7.90
2018-06-10T05:05:24.876Z,7.85
2018-06-10T05:07:58.280Z,7.33
2018-06-10T05:10:31.666Z,7.62
2018-06-10T05:13:05.087Z,6.95
2018-06-10T05:15:38.531Z,6.83
2018-06-10T05:18:11.927Z,7.42
2018-06-10T05:20:46.185Z,6.58
2018-06-10T05:23:19.786Z,7.80
2018-06-10T05:25:53.458Z,6.87
2018-06-10T05:28:26.895Z,6.45
2018-06-10T05:31:00.307Z,6.12
2018-06-10T05:33:33.701Z,6.40
2018-06-10T05:36:07.114Z,7.03
2018-06-10T05:38:40.491Z,6.85
2018-06-10T05:41:13.862Z,6.72
2018-06-10T05:43:47.245Z,7.35
2018-06-10T05:46:21.039Z,7.50
2018-06-10T05:48:54.447Z,7.90
2018-06-10T05:51:27.938Z,8.40
2018-06-10T05:54:01.425Z,7.17
2018-06-10T05:56:34.853Z,8.40
2018-06-10T05:59:08.532Z,9.53
2018-06-10T06:01:41.953Z,8.80
2018-06-10T06:04:15.472Z,9.38
2018-06-10T06:06:48.897Z,8.98
2018-06-10T06:09:22.317Z,9.48
2018-06-10T06:11:55.796Z,8.70
2018-06-10T06:14:29.221Z,8.05
2018-06-10T06:17:02.618Z,8.48
2018-06-10T06:19:35.998Z,9.20
2018-06-10T06:22:09.399Z,8.13
2018-06-10T06:24:42.770Z,8.48
2018-06-10T06:27:16.178Z,9.73
2018-06-10T06:29:49.568Z,9.58
2018-06-10T06:32:22.940Z,8.33
2018-06-10T06:34:56.344Z,8.40
2018-06-10T06:37:29.743Z,8.58
2018-06-10T06:40:03.180Z,9.08
2018-06-10T06:42:36.618Z,7.67
2018-06-10T06:45:10.003Z,8.50
2018-06-10T06:47:43.400Z,7.83
2018-06-10T06:50:16.808Z,7.78
2018-06-10T06:52:50.237Z,7.70
2018-06-10T06:55:23.661Z,8.33
2018-06-10T06:57:57.166Z,7.83
2018-06-10T07:00:30.517Z,7.55
2018-06-10T07:03:03.899Z,7.37
2018-06-10T07:05:37.296Z,7.50
2018-06-10T07:08:10.661Z,7.83
2018-06-10T07:10:44.029Z,8.30
2018-06-10T07:13:17.403Z,7.53
2018-06-10T07:15:50.821Z,7.92
2018-06-10T07:18:24.192Z,6.60
2018-06-10T07:20:58.404Z,7.40
2018-06-10T07:23:31.768Z,8.05
2018-06-10T07:26:05.184Z,7.60
2018-06-10T07:28:38.593Z,8.40
2018-06-10T07:31:12.002Z,6.83
2018-06-10T07:33:45.421Z,7.45
2018-06-10T07:36:18.820Z,8.28
2018-06-10T07:38:52.185Z,8.53
2018-06-10T07:41:25.612Z,7.85
2018-06-10T07:43:58.992Z,9.28
2018-06-10T07:46:32.379Z,8.30
2018-06-10T07:49:05.792Z,7.12
2018-06-10T07:51:39.191Z,8.55
2018-06-10T07:54:12.567Z,8.88
2018-06-10T07:56:45.969Z,7.28
2018-06-10T07:59:19.410Z,9.55
2018-06-10T08:01:52.832Z,9.28
2018-06-10T08:04:26.231Z,7.62
2018-06-10T08:06:59.669Z,8.85
2018-06-10T08:09:33.097Z,8.40
2018-06-10T08:12:06.543Z,7.97
2018-06-10T08:14:39.971Z,7.85
2018-06-10T08:17:13.393Z,7.60
2018-06-10T08:19:46.781Z,7.25
2018-06-10T08:22:20.213Z,6.83
2018-06-10T08:24:53.616Z,7.50
2018-06-10T08:27:27.054Z,9.30
2018-06-10T08:30:00.470Z,7.17
2018-06-10T08:32:34.170Z,7.85
2018-06-10T08:35:07.633Z,8.23
2018-06-10T08:37:41.007Z,8.43
2018-06-10T08:40:14.378Z,8.55
2018-06-10T08:42:47.791Z,9.78
2018-06-10T08:45:21.180Z,8.38
2018-06-10T08:47:54.585Z,9.18
2018-06-10T08:50:28.083Z,8.93
2018-06-10T08:53:02.071Z,7.85
2018-06-10T08:55:35.494Z,10.35
2018-06-10T08:58:09.037Z,9.08
2018-06-10T09:00:42.467Z,8.38
2018-06-10T09:03:15.857Z,7.90
2018-06-10T09:05:49.245Z,8.08
2018-06-10T09:08:22.638Z,7.42
2018-06-10T09:10:56.001Z,7.92
2018-06-10T09:13:29.439Z,8.05
2018-06-10T09:16:02.836Z,7.35
2018-06-10T09:18:36.222Z,7.33
2018-06-10T09:21:09.608Z,6.87
2018-06-10T09:23:43.007Z,7.55
2018-06-10T09:26:16.407Z,6.50
2018-06-10T09:28:49.874Z,7.00
2018-06-10T09:31:23.231Z,6.92
2018-06-10T09:33:56.644Z,6.65
2018-06-10T09:36:30.025Z,5.95
2018-06-10T09:39:03.701Z,5.83
2018-06-10T09:41:37.068Z,6.25
2018-06-10T09:44:10.472Z,5.90
2018-06-10T09:46:43.877Z,6.60
2018-06-10T09:49:17.279Z,5.87
2018-06-10T09:51:50.685Z,5.60
2018-06-10T09:54:24.069Z,6.17
2018-06-10T09:56:57.468Z,6.40
2018-06-10T09:59:30.863Z,6.62
2018-06-10T10:02:04.260Z,6.28
2018-06-10T10:04:37.683Z,6.33
2018-06-10T10:07:11.129Z,5.30
2018-06-10T10:09:44.509Z,5.47
2018-06-10T10:12:17.889Z,5.80
2018-06-10T10:14:51.267Z,5.42
2018-06-10T10:17:24.698Z,5.12
2018-06-10T10:19:58.107Z,6.37
2018-06-10T10:22:31.511Z,5.33
2018-06-10T10:25:04.912Z,5.97
2018-06-10T10:27:38.332Z,5.62
2018-06-10T10:30:11.731Z,5.22
2018-06-10T10:32:45.188Z,6.05
2018-06-10T10:35:18.564Z,5.08
2018-06-10T10:37:51.946Z,5.45
2018-06-10T10:40:25.326Z,6.12
2018-06-10T10:42:58.751Z,6.87
2018-06-10T10:45:32.113Z,6.17
2018-06-10T10:48:05.494Z,6.33
2018-06-10T10:50:38.869Z,5.92
2018-06-10T10:53:12.240Z,5.47
2018-06-10T10:55:45.623Z,6.33
2018-06-10T10:58:19.004Z,6.00
2018-06-10T11:00:52.380Z,6.28
2018-06-10T11:03:25.811Z,6.60
2018-06-10T11:05:59.170Z,5.30
2018-06-10T11:08:32.567Z,5.80
2018-06-10T11:11:05.971Z,5.80
2018-06-10T11:13:39.399Z,6.20
2018-06-10T11:16:12.764Z,5.97
2018-06-10T11:18:46.148Z,6.05
2018-06-10T11:21:19.500Z,6.08
2018-06-10T11:23:52.858Z,5.75
2018-06-10T11:26:26.295Z,6.55
2018-06-10T11:28:59.692Z,6.00
2018-06-10T11:31:33.318Z,5.67
2018-06-10T11:34:06.797Z,5.65
2018-06-10T11:36:40.165Z,6.25
2018-06-10T11:39:13.567Z,6.72
2018-06-10T11:41:46.917Z,5.65
2018-06-10T11:44:20.297Z,5.47
2018-06-10T11:46:54.166Z,5.37
2018-06-10T11:49:27.706Z,5.25
2018-06-10T11:52:01.140Z,5.20
2018-06-10T11:54:34.552Z,5.40
2018-06-10T11:57:07.912Z,5.05
2018-06-10T11:59:41.328Z,5.22
2018-06-10T12:02:14.703Z,5.22
2018-06-10T12:04:48.122Z,5.10
2018-06-10T12:07:21.471Z,5.00
2018-06-10T12:09:54.859Z,4.78
2018-06-10T12:12:28.387Z,5.25
2018-06-10T12:15:01.940Z,5.03
2018-06-10T12:17:35.325Z,4.75
2018-06-10T12:20:08.720Z,4.90
2018-06-10T12:22:42.143Z,4.22
2018-06-10T12:25:15.632Z,4.72
2018-06-10T12:27:49.020Z,4.55
2018-06-10T12:30:22.406Z,4.62
2018-06-10T12:32:56.603Z,4.20
2018-06-10T12:35:30.042Z,4.72
2018-06-10T12:38:03.443Z,4.72
2018-06-10T12:40:36.832Z,4.60
2018-06-10T12:43:10.201Z,4.55
2018-06-10T12:45:43.588Z,4.50
2018-06-10T12:48:16.993Z,4.47
2018-06-10T12:50:50.379Z,4.20
2018-06-10T12:53:23.753Z,4.70
2018-06-10T12:55:57.207Z,4.90
2018-06-10T12:58:30.592Z,4.40
2018-06-10T13:01:04.025Z,4.42
2018-06-10T13:03:37.444Z,5.03
2018-06-10T13:06:10.847Z,4.97
2018-06-10T13:08:44.211Z,4.25
2018-06-10T13:11:17.619Z,4.75
2018-06-10T13:13:51.024Z,5.20
2018-06-10T13:16:24.396Z,4.65
2018-06-10T13:18:57.859Z,4.53
2018-06-10T13:21:31.266Z,4.45
2018-06-10T13:24:04.656Z,4.33
2018-06-10T13:26:38.064Z,4.28
2018-06-10T13:29:11.424Z,4.85
2018-06-10T13:31:44.826Z,4.97
2018-06-10T13:34:18.177Z,4.50
2018-06-10T13:36:51.592Z,4.75
2018-06-10T13:39:25.002Z,4.15
2018-06-10T13:41:58.375Z,4.00
2018-06-10T13:44:31.757Z,4.78
2018-06-10T13:47:05.159Z,4.92
2018-06-10T13:49:38.619Z,5.15
2018-06-10T13:52:11.991Z,4.65
2018-06-10T13:54:45.423Z,5.28
2018-06-10T13:57:18.778Z,5.95
2018-06-10T13:59:52.170Z,5.58
2018-06-10T14:02:25.564Z,6.35
2018-06-10T14:04:58.944Z,6.00
2018-06-10T14:07:32.309Z,6.35
2018-06-10T14:10:05.698Z,6.30
2018-06-10T14:12:39.050Z,7.53
2018-06-10T14:15:12.518Z,6.87
2018-06-10T14:17:46.916Z,8.30
2018-06-10T14:20:20.302Z,7.20
2018-06-10T14:22:53.705Z,7.42
2018-06-10T14:25:27.111Z,7.78
2018-06-10T14:28:00.533Z,8.58
2018-06-10T14:30:33.930Z,7.30
2018-06-10T14:33:07.310Z,7.00
2018-06-10T14:35:40.706Z,7.37
2018-06-10T14:38:20.445Z,7.97
2018-06-10T14:40:53.850Z,7.58
2018-06-10T14:43:27.236Z,7.83
2018-06-10T14:46:00.614Z,7.70
2018-06-10T14:48:33.962Z,8.18
2018-06-10T14:51:07.346Z,7.80
2018-06-10T14:53:40.711Z,7.15
2018-06-10T14:56:14.097Z,7.83
2018-06-10T14:58:47.462Z,7.65
2018-06-10T15:01:20.853Z,8.40
2018-06-10T15:03:54.238Z,7.25
2018-06-10T15:06:28.161Z,7.83
2018-06-10T15:09:01.506Z,6.83
2018-06-10T15:11:34.881Z,7.85
2018-06-10T15:14:08.313Z,9.00
2018-06-10T15:16:41.693Z,8.45
2018-06-10T15:19:15.063Z,7.35
2018-06-10T15:21:48.450Z,7.08
2018-06-10T15:24:21.844Z,8.90
2018-06-10T15:26:55.249Z,8.38
2018-06-10T15:29:28.638Z,8.90
2018-06-10T15:32:02.117Z,9.40
2018-06-10T15:34:35.539Z,11.20
2018-06-10T15:37:08.942Z,8.70
2018-06-10T15:39:42.334Z,11.15
2018-06-10T15:42:15.746Z,10.75
2018-06-10T15:44:49.125Z,12.60
2018-06-10T15:47:22.624Z,12.43
2018-06-10T15:49:56.024Z,11.40
2018-06-10T15:52:29.469Z,11.95
2018-06-10T15:55:02.853Z,13.25
2018-06-10T15:57:36.241Z,13.70
2018-06-10T16:00:09.677Z,14.80
2018-06-10T16:02:43.065Z,13.68
2018-06-10T16:05:16.511Z,13.78
2018-06-10T16:07:49.898Z,14.68
2018-06-10T16:10:23.306Z,13.05
2018-06-10T16:12:56.796Z,11.00
2018-06-10T16:15:30.192Z,9.35
2018-06-10T16:18:03.597Z,9.05
2018-06-10T16:20:36.985Z,8.43
2018-06-10T16:23:10.384Z,7.65
2018-06-10T16:25:43.781Z,7.90
2018-06-10T16:28:17.187Z,8.40
2018-06-10T16:30:50.581Z,7.15
2018-06-10T16:33:23.982Z,6.97
2018-06-10T16:35:57.420Z,7.05
2018-06-10T16:38:30.851Z,7.33
2018-06-10T16:41:04.428Z,6.55
2018-06-10T16:43:37.884Z,6.58
2018-06-10T16:46:11.247Z,6.95
2018-06-10T16:48:44.673Z,6.92
2018-06-10T16:51:18.094Z,6.87
2018-06-10T16:53:51.484Z,6.35
2018-06-10T16:56:24.878Z,6.30
2018-06-10T16:58:58.377Z,6.28
2018-06-10T17:01:31.789Z,6.28
2018-06-10T17:04:05.187Z,5.28
2018-06-10T17:06:38.607Z,5.67
2018-06-10T17:09:11.959Z,6.40
2018-06-10T17:11:45.380Z,5.90
2018-06-10T17:14:18.764Z,5.80
2018-06-10T17:16:52.132Z,6.40
2018-06-10T17:19:25.551Z,7.12
2018-06-10T17:21:58.931Z,5.90
2018-06-10T17:24:32.396Z,6.30
2018-06-10T17:27:05.761Z,5.55
2018-06-10T17:29:39.120Z,6.33
2018-06-10T17:32:12.499Z,5.50
2018-06-10T17:34:45.926Z,6.10
2018-06-10T17:37:19.259Z,5.67
2018-06-10T17:39:52.634Z,5.42
2018-06-10T17:42:26.035Z,5.53
2018-06-10T17:44:59.425Z,5.30
2018-06-10T17:47:32.881Z,5.85
2018-06-10T17:50:06.188Z,5.70
2018-06-10T17:52:39.569Z,5.15
2018-06-10T17:55:12.941Z,5.90
2018-06-10T17:57:46.320Z,5.17
2018-06-10T18:00:19.724Z,5.25
2018-06-10T18:02:53.121Z,5.60
2018-06-10T18:05:26.495Z,5.17
2018-06-10T18:07:59.883Z,6.03
2018-06-10T18:10:33.244Z,7.58
2018-06-10T18:13:06.661Z,7.22
2018-06-10T18:15:40.061Z,6.83
2018-06-10T18:18:13.448Z,6.58
2018-06-10T18:20:46.830Z,7.25
2018-06-10T18:23:20.236Z,7.37
2018-06-10T18:25:53.575Z,6.72
2018-06-10T18:28:27.007Z,6.72
2018-06-10T18:31:00.388Z,7.28
2018-06-10T18:33:33.790Z,6.50
2018-06-10T18:36:07.143Z,6.00
2018-06-10T18:38:40.553Z,7.70
2018-06-10T18:41:13.912Z,7.90
2018-06-10T18:43:47.322Z,6.75
2018-06-10T18:46:20.694Z,6.75
2018-06-10T18:48:54.065Z,7.37
2018-06-10T18:51:27.482Z,6.58
2018-06-10T18:54:00.865Z,7.12
2018-06-10T18:56:34.212Z,6.70
2018-06-10T18:59:07.584Z,7.10
2018-06-10T19:01:40.947Z,6.72
2018-06-10T19:04:14.360Z,6.47
2018-06-10T19:06:47.720Z,6.08
2018-06-10T19:09:21.104Z,5.53
2018-06-10T19:11:54.488Z,6.40
2018-06-10T19:14:27.922Z,6.45
2018-06-10T19:17:01.287Z,6.35
2018-06-10T19:19:34.668Z,6.28
2018-06-10T19:22:08.051Z,6.33
2018-06-10T19:24:41.471Z,5.92
2018-06-10T19:27:14.819Z,6.37
2018-06-10T19:29:48.205Z,6.42
2018-06-10T19:32:21.569Z,6.17
2018-06-10T19:34:55.021Z,5.72
2018-06-10T19:37:28.372Z,6.20
2018-06-10T19:40:01.777Z,5.85
2018-06-10T19:42:35.135Z,5.33
2018-06-10T19:45:08.508Z,5.90
2018-06-10T19:47:41.861Z,5.70
2018-06-10T19:50:15.262Z,5.83
2018-06-10T19:52:48.652Z,6.20
2018-06-10T19:55:22.025Z,6.17
2018-06-10T19:57:55.411Z,6.10
2018-06-10T20:00:28.822Z,6.30
2018-06-10T20:03:02.197Z,5.62
2018-06-10T20:05:35.590Z,5.67
2018-06-10T20:08:08.971Z,5.20
2018-06-10T20:10:42.362Z,5.87
2018-06-10T20:13:16.171Z,5.70
2018-06-10T20:15:49.666Z,5.95
2018-06-10T20:18:23.114Z,6.62
2018-06-10T20:20:56.504Z,6.75
2018-06-10T20:23:29.880Z,6.87
2018-06-10T20:26:03.277Z,6.37
2018-06-10T20:28:36.641Z,6.75
2018-06-10T20:31:10.086Z,6.55
2018-06-10T20:33:43.521Z,6.45
2018-06-10T20:36:16.927Z,6.72
2018-06-10T20:38:50.431Z,7.20
2018-06-10T20:41:23.791Z,6.87
2018-06-10T20:43:57.180Z,6.67
2018-06-10T20:46:30.914Z,6.35
2018-06-10T20:49:04.311Z,6.42
2018-06-10T20:51:37.670Z,6.03
2018-06-10T20:54:11.076Z,6.60
2018-06-10T20:56:44.443Z,6.22
2018-06-10T20:59:17.838Z,6.42
2018-06-10T21:01:51.203Z,7.28
2018-06-10T21:04:24.584Z,6.67
2018-06-10T21:06:58.024Z,6.67
2018-06-10T21:09:31.394Z,7.35
2018-06-10T21:12:04.768Z,6.72
2018-06-10T21:14:38.181Z,7.08
2018-06-10T21:17:11.570Z,7.75
2018-06-10T21:19:44.948Z,6.80
2018-06-10T21:22:18.297Z,7.62
2018-06-10T21:24:51.700Z,6.85
2018-06-10T21:27:25.083Z,7.47
2018-06-10T21:29:58.651Z,7.80
2018-06-10T21:32:31.996Z,7.60
2018-06-10T21:35:05.386Z,7.72
2018-06-10T21:37:38.761Z,8.50
2018-06-10T21:40:12.150Z,8.20
2018-06-10T21:42:45.500Z,8.25
2018-06-10T21:45:18.888Z,10.28
2018-06-10T21:47:52.245Z,7.97
2018-06-10T21:50:25.631Z,8.45
2018-06-10T21:52:58.998Z,8.38
2018-06-10T21:55:32.405Z,8.03
2018-06-10T21:58:05.775Z,9.60
2018-06-10T22:00:39.173Z,9.73
2018-06-10T22:03:12.604Z,9.88
2018-06-10T22:05:45.995Z,8.00
2018-06-10T22:08:19.340Z,8.23
2018-06-10T22:10:52.744Z,8.28
2018-06-10T22:13:26.138Z,9.23
2018-06-10T22:15:59.652Z,8.10
2018-06-10T22:18:33.019Z,8.18
2018-06-10T22:21:06.449Z,8.38
2018-06-10T22:23:39.811Z,9.98
2018-06-10T22:26:13.207Z,10.58
2018-06-10T22:28:46.571Z,8.73
2018-06-10T22:31:19.994Z,10.45
2018-06-10T22:33:53.392Z,9.90
2018-06-10T22:36:27.140Z,8.48
2018-06-10T22:39:00.508Z,8.53
2018-06-10T22:41:33.885Z,8.90
2018-06-10T22:44:07.260Z,8.43
2018-06-10T22:46:40.662Z,8.30
2018-06-10T22:49:14.058Z,8.95
2018-06-10T22:51:47.457Z,8.85
2018-06-10T22:54:52.719Z,8.88
2018-06-10T22:57:26.152Z,10.20
2018-06-10T22:59:59.529Z,9.53
2018-06-10T23:02:32.929Z,8.95
2018-06-10T23:05:06.332Z,9.00
2018-06-10T23:07:39.721Z,9.35
2018-06-10T23:10:13.105Z,9.88
2018-06-10T23:12:46.500Z,9.58
2018-06-10T23:15:19.891Z,8.85
2018-06-10T23:17:53.273Z,12.40
2018-06-10T23:20:26.960Z,11.65
2018-06-10T23:23:00.314Z,11.38
2018-06-10T23:25:33.693Z,11.90
2018-06-10T23:28:07.062Z,10.50
2018-06-10T23:30:41.394Z,11.08
2018-06-10T23:33:15.594Z,10.48
2018-06-10T23:35:50.052Z,11.50
2018-06-10T23:38:24.453Z,9.68
2018-06-10T23:40:58.820Z,9.43
2018-06-10T23:43:33.093Z,11.33
2018-06-10T23:46:07.342Z,10.40
2018-06-10T23:48:40.718Z,10.25
2018-06-10T23:51:14.104Z,10.88
2018-06-10T23:53:47.463Z,10.43
2018-06-10T23:56:20.842Z,10.90
2018-06-10T23:58:54.202Z,9.38
